Time;durP1;ratioP1;P1;durP2;ratioP2;P2;SDS_P1;SDS_P2;PMS_P1;PMS_P2;Temp;Humidity;BMP_temperature;BMP_pressure;BME280_temperature;BME280_humidity;BME280_pressure;Samples;Min_cycle;Max_cycle;Signal;HPM_P1;HPM_P2
2021/01/10 00:00:12;;;;;;;12.53;8.73;;;-2.70;99.90;;;-1.89;53.61;94268.94;5058239;28;20257;-66
2021/01/10 00:02:39;;;;;;;13.03;7.77;;;-2.60;99.90;;;-1.91;53.72;94289.06;5067855;28;20199;-66
2021/01/10 00:05:11;;;;;;;14.83;8.67;;;-2.70;99.90;;;-1.73;53.52;94280.91;5035525;28;20180;-66
2021/01/10 00:07:37;;;;;;;10.43;7.37;;;-2.60;99.90;;;-1.77;53.72;94284.84;5053108;28;20665;-66
2021/01/10 00:10:08;;;;;;;13.40;8.40;;;-2.60;99.90;;;-1.90;53.53;94282.06;5035953;28;20200;-66
2021/01/10 00:12:36;;;;;;;13.13;8.40;;;-2.70;99.90;;;-1.87;53.74;94282.53;5036230;28;20229;-67
2021/01/10 00:15:08;;;;;;;12.07;8.30;;;-2.70;99.90;;;-1.79;53.48;94285.03;5038524;28;20198;-67
2021/01/10 00:17:37;;;;;;;13.20;8.27;;;-2.60;99.90;;;-1.90;53.69;94284.66;5035662;28;20643;-66
2021/01/10 00:20:09;;;;;;;12.40;8.77;;;-2.70;99.90;;;-2.04;54.00;94277.69;5058286;28;20196;-68
2021/01/10 00:22:38;;;;;;;12.20;8.20;;;-2.70;99.90;;;-2.02;53.91;94278.31;5052619;28;20616;-66
2021/01/10 00:25:13;;;;;;;14.07;8.80;;;-2.70;99.90;;;-2.05;54.03;94273.50;5052212;28;20595;-67
2021/01/10 00:27:43;;;;;;;13.40;8.47;;;-2.80;99.90;;;-1.93;54.06;94283.25;5052542;28;20203;-64
2021/01/10 00:30:12;;;;;;;15.77;9.13;;;-2.70;99.90;;;-1.99;53.61;94286.56;5051952;28;20235;-66
2021/01/10 00:32:38;;;;;;;10.03;7.67;;;-2.80;99.90;;;-1.91;54.34;94281.25;5068906;28;20278;-66
2021/01/10 00:35:07;;;;;;;14.30;9.00;;;-2.70;99.90;;;-1.87;53.83;94276.53;5022450;28;20183;-66
2021/01/10 00:37:33;;;;;;;12.50;8.63;;;-2.70;99.90;;;-1.79;53.91;94274.66;5035997;28;20214;-68
2021/01/10 00:39:59;;;;;;;15.60;9.00;;;-2.60;99.90;;;-1.83;54.06;94282.97;5065510;28;20572;-67
2021/01/10 00:42:25;;;;;;;12.83;8.37;;;-2.60;99.90;;;-1.91;54.08;94277.84;5045631;28;20184;-68
2021/01/10 00:44:51;;;;;;;13.50;9.13;;;-2.70;99.90;;;-1.90;53.98;94284.66;5032451;28;20200;-65
2021/01/10 00:47:17;;;;;;;13.03;8.53;;;-2.70;99.90;;;-1.90;53.89;94282.06;5031317;28;20196;-68
2021/01/10 00:49:47;;;;;;;13.83;9.70;;;-2.70;99.90;;;-1.83;54.18;94294.16;5057606;28;20278;-66
2021/01/10 00:52:14;;;;;;;13.33;8.27;;;-2.60;99.90;;;-1.68;54.39;94287.16;5053260;28;20206;-65
2021/01/10 00:54:40;;;;;;;11.77;8.27;;;-2.50;99.90;;;-1.71;54.38;94295.31;5053213;28;20220;-65
2021/01/10 00:57:06;;;;;;;12.20;8.37;;;-2.50;99.90;;;-1.62;54.11;94296.06;5052184;28;20211;-66
2021/01/10 00:59:34;;;;;;;13.67;8.80;;;-2.40;99.90;;;-1.71;54.43;94292.72;5051427;28;20219;-66
2021/01/10 01:02:00;;;;;;;14.80;8.80;;;-2.50;99.90;;;-1.65;54.12;94293.81;5064840;28;20216;-65
2021/01/10 01:04:28;;;;;;;15.40;9.43;;;-2.40;99.90;;;-1.52;54.70;94298.38;5049250;28;20182;-65
2021/01/10 01:06:55;;;;;;;16.40;9.70;;;-2.40;99.90;;;-1.62;54.54;94291.66;5048645;28;20278;-67
2021/01/10 01:09:23;;;;;;;13.53;9.00;;;-2.40;99.90;;;-1.65;54.31;94293.81;5052770;28;20195;-66
2021/01/10 01:11:49;;;;;;;14.60;10.03;;;-2.40;99.90;;;-1.58;54.68;94305.09;5052190;28;20196;-66
2021/01/10 01:14:15;;;;;;;14.60;10.37;;;-2.40;99.90;;;-1.59;54.30;94295.69;5038464;28;20238;-66
2021/01/10 01:16:41;;;;;;;15.10;10.80;;;-2.40;99.90;;;-1.59;54.48;94303.47;5060925;28;20241;-65
2021/01/10 01:19:08;;;;;;;16.50;10.83;;;-2.40;99.90;;;-1.63;54.33;94299.63;5047926;28;20261;-65
2021/01/10 01:21:37;;;;;;;16.37;10.47;;;-2.40;99.90;;;-1.65;54.48;94302.41;5054773;28;20203;-66
2021/01/10 01:24:04;;;;;;;19.27;12.30;;;-2.40;99.90;;;-1.64;54.65;94304.00;5052339;28;20188;-67
2021/01/10 01:26:33;;;;;;;17.63;11.57;;;-2.40;99.90;;;-1.60;54.44;94299.25;5029286;28;20269;-66
2021/01/10 01:29:02;;;;;;;16.97;11.33;;;-2.40;99.90;;;-1.64;54.73;94311.00;5046010;28;20204;-68
2021/01/10 01:31:29;;;;;;;17.80;11.43;;;-2.40;99.90;;;-1.52;54.52;94298.38;5051255;28;20291;-67
2021/01/10 01:33:56;;;;;;;18.20;12.00;;;-2.30;99.90;;;-1.59;54.49;94306.88;5052656;28;20530;-65
2021/01/10 01:36:24;;;;;;;16.93;11.77;;;-2.40;99.90;;;-1.61;54.52;94308.03;5037077;28;20194;-67
2021/01/10 01:38:55;;;;;;;17.00;11.13;;;-2.40;99.90;;;-1.58;54.74;94299.91;5034575;28;20193;-66
2021/01/10 01:41:24;;;;;;;17.80;12.23;;;-2.30;99.90;;;-1.60;54.66;94301.84;5050814;28;20211;-66
2021/01/10 01:43:50;;;;;;;18.33;12.17;;;-2.40;99.90;;;-1.52;55.08;94309.56;5052315;28;20191;-67
2021/01/10 01:46:36;;;;;;;18.97;12.30;;;-2.30;99.90;;;-1.43;55.13;94305.88;5039701;28;20195;-65
2021/01/10 01:49:10;;;;;;;17.47;11.50;;;-2.20;99.90;;;-1.60;55.07;94310.47;5051074;28;20191;-67
2021/01/10 01:51:37;;;;;;;16.23;11.27;;;-2.30;99.90;;;-1.45;55.03;94307.88;5038472;28;20633;-65
2021/01/10 01:54:07;;;;;;;18.00;11.60;;;-2.30;99.90;;;-1.58;55.02;94302.50;5048929;28;20234;-67
2021/01/10 01:56:37;;;;;;;19.70;12.17;;;-2.30;99.90;;;-1.58;54.94;94297.31;5048222;28;20267;-66
2021/01/10 01:59:08;;;;;;;19.43;12.20;;;-2.40;99.90;;;-1.63;55.06;94305.63;5036403;28;20647;-67
2021/01/10 02:01:39;;;;;;;18.53;11.20;;;-2.40;99.90;;;-1.72;55.13;94317.09;5050836;28;20678;-66
2021/01/10 02:04:29;;;;;;;18.00;11.63;;;-2.50;99.90;;;-1.76;55.17;94315.03;5045468;28;20619;-66
2021/01/10 02:07:40;;;;;;;16.90;11.93;;;-2.50;99.90;;;-1.70;55.21;94325.50;5031492;28;20187;-65
2021/01/10 02:10:13;;;;;;;17.47;11.73;;;-2.50;99.90;;;-1.73;55.11;94318.09;5050701;28;20673;-64
2021/01/10 02:12:52;;;;;;;17.43;11.43;;;-2.50;99.90;;;-1.81;55.17;94318.16;5030989;28;20193;-65
2021/01/10 02:15:22;;;;;;;15.87;10.10;;;-2.60;99.90;;;-1.77;55.22;94318.59;5028074;28;20519;-66
2021/01/10 02:17:53;;;;;;;16.37;9.80;;;-2.60;99.90;;;-1.79;55.49;94318.00;5041750;28;20184;-65
2021/01/10 02:20:31;;;;;;;14.77;10.20;;;-2.60;99.90;;;-1.87;55.45;94315.47;5066052;28;20211;-65
2021/01/10 02:23:12;;;;;;;13.97;8.67;;;-2.60;99.90;;;-1.88;55.67;94312.06;5048479;28;20217;-65
2021/01/10 02:25:43;;;;;;;15.33;9.80;;;-2.60;99.90;;;-1.90;55.39;94311.44;5060850;28;20229;-65
2021/01/10 02:28:10;;;;;;;15.50;10.50;;;-2.70;99.90;;;-1.93;55.26;94311.81;5050217;28;20199;-65
2021/01/10 02:30:43;;;;;;;13.93;9.63;;;-2.70;99.90;;;-1.80;55.51;94313.78;5067396;28;20273;-66
2021/01/10 02:33:46;;;;;;;15.50;9.77;;;-2.60;99.90;;;-1.72;55.57;94306.72;5031278;28;20196;-66
2021/01/10 02:36:25;;;;;;;16.07;9.43;;;-2.50;99.90;;;-1.74;55.67;94302.66;5047143;28;20191;-65
2021/01/10 02:39:16;;;;;;;13.53;9.27;;;-2.50;99.90;;;-1.79;56.17;94307.59;5046707;28;20651;-68
2021/01/10 02:42:10;;;;;;;16.00;9.90;;;-2.60;99.90;;;-1.81;55.49;94305.19;5047786;28;20639;-65
2021/01/10 02:44:43;;;;;;;15.70;10.40;;;-2.60;99.90;;;-1.80;55.61;94299.00;5042418;28;20195;-64
2021/01/10 02:47:10;;;;;;;15.70;9.43;;;-2.60;99.90;;;-1.80;55.61;94293.81;5036546;28;20180;-65
2021/01/10 02:49:38;;;;;;;14.93;9.83;;;-2.50;99.90;;;-1.89;55.77;94301.88;5071862;28;20618;-64
2021/01/10 02:52:06;;;;;;;14.90;9.90;;;-2.60;99.90;;;-1.74;55.26;94300.06;5031899;28;20191;-67
2021/01/10 02:54:32;;;;;;;15.03;10.17;;;-2.60;99.90;;;-1.83;55.91;94299.38;5050981;28;20188;-65
2021/01/10 02:57:38;;;;;;;15.17;9.83;;;-2.60;99.90;;;-1.77;55.93;94306.44;5051318;28;20644;-64
2021/01/10 03:00:08;;;;;;;16.63;10.60;;;-2.60;99.90;;;-1.84;55.72;94299.53;5032092;28;21085;-67
2021/01/10 03:02:35;;;;;;;15.53;10.03;;;-2.60;99.90;;;-1.79;56.45;94303.22;5032083;28;20698;-67
2021/01/10 03:05:06;;;;;;;17.07;10.10;;;-2.60;99.90;;;-1.90;56.06;94300.25;5048526;28;20333;-65
2021/01/10 03:07:34;;;;;;;14.97;9.93;;;-2.60;99.90;;;-1.84;56.30;94300.34;5048698;28;20221;-66
2021/01/10 03:10:01;;;;;;;15.10;10.00;;;-2.60;99.90;;;-1.89;56.25;94312.25;5032145;28;20578;-67
2021/01/10 03:12:27;;;;;;;13.83;10.13;;;-2.60;99.90;;;-1.98;55.80;94308.94;5028510;28;20257;-65
2021/01/10 03:14:58;;;;;;;14.63;10.33;;;-2.70;99.90;;;-1.94;56.00;94311.97;5031919;28;20362;-65
2021/01/10 03:17:37;;;;;;;14.90;9.53;;;-2.70;99.90;;;-2.01;56.10;94306.69;5048684;28;20257;-63
2021/01/10 03:20:07;;;;;;;14.93;10.00;;;-2.70;99.90;;;-2.19;55.61;94303.66;5031817;28;20722;-67
2021/01/10 03:22:33;;;;;;;15.37;10.20;;;-2.80;99.90;;;-2.22;55.91;94304.81;5029717;28;20189;-65
2021/01/10 03:25:02;;;;;;;16.70;10.77;;;-2.90;99.90;;;-2.17;56.16;94307.66;5012392;28;20193;-65
2021/01/10 03:27:33;;;;;;;18.17;11.27;;;-2.90;99.90;;;-2.31;56.14;94303.25;5049081;28;20191;-68
2021/01/10 03:29:59;;;;;;;14.60;10.13;;;-3.00;99.90;;;-2.24;55.91;94306.75;5004206;28;20264;-66
2021/01/10 03:32:25;;;;;;;13.93;9.77;;;-3.00;99.90;;;-2.27;55.63;94301.91;5052200;28;20176;-66
2021/01/10 03:34:51;;;;;;;15.20;10.17;;;-3.00;99.90;;;-2.30;56.00;94314.44;5033836;28;20694;-65
2021/01/10 03:37:17;;;;;;;15.50;10.13;;;-3.10;99.90;;;-2.37;55.95;94298.78;5047212;28;20200;-68
2021/01/10 03:39:43;;;;;;;15.90;9.83;;;-3.10;99.90;;;-2.46;56.29;94302.44;5034033;28;20196;-65
2021/01/10 03:42:09;;;;;;;14.43;10.30;;;-3.20;99.90;;;-2.43;56.20;94299.47;5052156;28;20194;-64
2021/01/10 03:44:35;;;;;;;17.30;10.70;;;-3.20;99.90;;;-2.37;56.26;94311.75;5052491;28;20231;-65
2021/01/10 03:47:02;;;;;;;18.33;10.23;;;-3.20;99.90;;;-2.39;56.15;94300.75;5034555;28;20191;-64
2021/01/10 03:49:30;;;;;;;22.43;10.30;;;-3.20;99.90;;;-2.46;56.08;94299.84;5058904;28;20887;-66
2021/01/10 03:51:56;;;;;;;17.27;10.57;;;-3.20;99.90;;;-2.54;56.07;94297.31;5054420;28;20191;-64
2021/01/10 03:54:21;;;;;;;18.07;11.33;;;-3.30;99.90;;;-2.54;56.08;94291.31;5053407;28;20274;-65
2021/01/10 03:56:48;;;;;;;17.57;11.17;;;-3.30;99.90;;;-2.53;56.39;94300.69;5015101;28;20730;-65
2021/01/10 03:59:14;;;;;;;15.70;10.17;;;-3.30;99.90;;;-2.56;56.04;94286.31;5052829;28;20538;-67
2021/01/10 04:01:40;;;;;;;18.27;11.23;;;-3.30;99.90;;;-2.54;56.32;94292.09;5054016;28;20699;-66
2021/01/10 04:04:07;;;;;;;15.53;10.13;;;-3.30;99.90;;;-2.57;56.52;94300.25;5065854;28;20184;-65
2021/01/10 04:06:33;;;;;;;15.57;10.27;;;-3.30;99.90;;;-2.49;56.17;94305.38;5059918;28;20192;-66
2021/01/10 04:09:04;;;;;;;15.87;10.57;;;-3.30;99.90;;;-2.58;55.95;94295.25;5069327;28;20852;-66
2021/01/10 04:11:30;;;;;;;15.80;10.63;;;-3.30;99.90;;;-2.58;56.19;94294.25;5054447;28;20198;-66
2021/01/10 04:13:57;;;;;;;15.07;9.90;;;-3.40;99.90;;;-2.64;56.64;94286.34;5056529;28;20288;-65
2021/01/10 04:16:25;;;;;;;15.10;9.77;;;-3.40;99.90;;;-2.65;56.67;94295.13;5049338;28;20199;-66
2021/01/10 04:18:51;;;;;;;16.40;10.87;;;-3.40;99.90;;;-2.65;56.09;94297.72;5043909;28;20298;-66
2021/01/10 04:21:20;;;;;;;15.33;10.17;;;-3.40;99.90;;;-2.70;56.61;94298.25;5052381;28;20301;-65
2021/01/10 04:23:46;;;;;;;14.70;10.33;;;-3.40;99.90;;;-2.70;56.37;94306.03;5052234;28;20202;-66
2021/01/10 04:26:13;;;;;;;14.70;9.97;;;-3.50;99.90;;;-2.64;56.17;94304.50;5052237;28;20205;-66
2021/01/10 04:28:39;;;;;;;14.30;9.13;;;-3.40;99.90;;;-2.75;56.26;94307.50;5051657;28;20555;-65
2021/01/10 04:31:07;;;;;;;14.63;9.37;;;-3.50;99.90;;;-2.72;56.29;94297.59;5068981;28;20613;-66
2021/01/10 04:33:34;;;;;;;14.70;10.00;;;-3.50;99.90;;;-2.60;56.19;94298.81;5052433;28;20211;-67
2021/01/10 04:36:03;;;;;;;15.97;10.37;;;-3.40;99.90;;;-2.69;56.17;94306.84;5053970;28;20216;-65
2021/01/10 04:38:29;;;;;;;16.23;10.07;;;-3.50;99.90;;;-2.72;56.65;94291.63;5048670;28;20187;-67
2021/01/10 04:40:57;;;;;;;17.73;10.77;;;-3.50;99.90;;;-2.64;56.95;94289.75;5018003;28;20321;-65
2021/01/10 04:43:23;;;;;;;18.00;10.67;;;-3.40;99.90;;;-2.65;56.81;94280.38;5067677;28;20563;-66
2021/01/10 04:45:50;;;;;;;16.57;10.60;;;-3.40;99.90;;;-2.63;56.77;94286.19;5035389;28;20188;-66
2021/01/10 04:48:16;;;;;;;15.03;9.40;;;-3.40;99.90;;;-2.68;56.62;94282.50;5049032;28;20355;-66
2021/01/10 04:50:43;;;;;;;14.10;9.60;;;-3.40;99.90;;;-2.67;56.68;94290.13;5050165;28;20218;-65
2021/01/10 04:53:10;;;;;;;15.07;10.03;;;-3.40;99.90;;;-2.80;56.43;94279.53;5043105;28;20188;-63
2021/01/10 04:55:38;;;;;;;15.93;10.67;;;-3.50;99.90;;;-2.88;56.61;94273.59;5049578;28;20207;-65
2021/01/10 04:58:07;;;;;;;15.40;9.63;;;-3.60;99.90;;;-2.85;56.87;94271.44;5053310;28;20194;-65
2021/01/10 05:00:34;;;;;;;15.53;9.23;;;-3.60;99.90;;;-2.84;56.94;94275.66;5068323;28;20753;-64
2021/01/10 05:03:16;;;;;;;15.50;9.93;;;-3.60;99.90;;;-2.82;57.01;94278.88;5037585;28;20189;-64
2021/01/10 05:05:48;;;;;;;14.80;9.67;;;-3.60;99.90;;;-2.90;56.95;94283.31;5032132;28;20181;-65
2021/01/10 05:08:14;;;;;;;15.67;10.07;;;-3.70;99.90;;;-2.88;56.53;94278.75;5046146;28;20248;-65
2021/01/10 05:10:45;;;;;;;15.67;9.67;;;-3.60;99.90;;;-2.87;56.93;94273.41;5050888;28;20294;-65
2021/01/10 05:13:11;;;;;;;16.63;10.17;;;-3.60;99.90;;;-2.95;57.04;94270.06;5053991;28;20195;-67
2021/01/10 05:15:43;;;;;;;15.77;10.50;;;-3.70;99.90;;;-2.99;56.71;94279.19;5052260;28;20199;-66
2021/01/10 05:18:11;;;;;;;16.30;10.60;;;-3.80;99.90;;;-2.99;56.90;94274.00;5030186;28;20195;-65
2021/01/10 05:20:39;;;;;;;14.13;9.07;;;-3.80;99.90;;;-2.96;56.61;94281.44;5038861;28;20214;-65
2021/01/10 05:23:05;;;;;;;15.97;10.90;;;-3.70;99.90;;;-2.98;56.65;94273.00;5069128;28;20195;-68
2021/01/10 05:25:30;;;;;;;13.57;9.03;;;-3.80;99.90;;;-3.05;56.70;94285.03;5032252;28;20197;-64
2021/01/10 05:27:58;;;;;;;16.97;10.37;;;-3.80;99.90;;;-3.04;57.16;94281.47;5051634;28;20554;-65
2021/01/10 05:30:32;;;;;;;15.57;10.77;;;-3.80;99.90;;;-3.12;57.15;94280.56;5067278;28;20244;-64
2021/01/10 05:33:08;;;;;;;12.17;9.13;;;-3.90;99.90;;;-3.14;57.24;94285.13;5067552;28;20582;-66
2021/01/10 05:35:58;;;;;;;17.00;9.30;;;-3.90;99.90;;;-3.09;56.96;94274.25;5031439;28;20203;-63
2021/01/10 05:38:33;;;;;;;15.73;9.83;;;-3.90;99.90;;;-3.20;57.08;94297.94;5049877;28;20182;-63
2021/01/10 05:41:01;;;;;;;16.70;9.93;;;-4.00;99.90;;;-3.18;56.94;94296.78;5034191;28;20309;-64
2021/01/10 05:43:28;;;;;;;14.20;9.67;;;-3.90;99.90;;;-3.22;56.79;94305.88;5054844;28;20194;-63
2021/01/10 05:45:57;;;;;;;15.73;10.17;;;-4.00;99.90;;;-3.24;57.33;94292.31;5048013;28;20665;-63
2021/01/10 05:48:25;;;;;;;16.27;9.33;;;-4.00;99.90;;;-3.29;56.86;94293.81;5034308;28;20196;-67
2021/01/10 05:50:52;;;;;;;14.80;10.30;;;-4.10;99.90;;;-3.12;57.33;94293.50;5043242;28;20181;-64
2021/01/10 05:53:25;;;;;;;16.80;10.37;;;-4.00;99.90;;;-3.15;56.86;94280.91;5066877;28;20191;-64
2021/01/10 05:56:03;;;;;;;15.57;9.83;;;-4.00;99.90;;;-3.15;57.35;94298.22;5047745;28;20588;-65
2021/01/10 05:58:32;;;;;;;15.00;10.07;;;-4.00;99.90;;;-3.30;56.85;94287.81;5055058;28;20328;-64
2021/01/10 06:01:13;;;;;;;14.10;10.10;;;-4.10;99.90;;;-3.31;57.47;94301.72;5047165;28;20212;-64
2021/01/10 06:03:42;;;;;;;15.30;9.83;;;-4.10;99.90;;;-3.33;57.36;94293.34;5048848;28;20679;-65
2021/01/10 06:06:09;;;;;;;16.63;9.80;;;-4.10;99.90;;;-3.28;57.59;94301.38;5051119;28;20674;-63
2021/01/10 06:08:39;;;;;;;15.90;10.07;;;-4.10;99.90;;;-3.34;57.45;94301.25;5050566;28;20189;-63
2021/01/10 06:11:23;;;;;;;15.37;9.47;;;-4.20;99.90;;;-3.27;56.94;94300.41;5045977;28;20270;-67
2021/01/10 06:13:55;;;;;;;15.73;10.13;;;-4.10;99.90;;;-3.34;56.88;94302.06;5050960;28;20194;-65
2021/01/10 06:16:33;;;;;;;14.63;9.40;;;-4.10;99.90;;;-3.27;57.32;94299.59;5050945;28;20202;-66
2021/01/10 06:19:06;;;;;;;18.77;10.63;;;-4.10;99.90;;;-3.37;57.50;94297.22;5052575;28;20191;-65
2021/01/10 06:21:34;;;;;;;15.70;10.13;;;-4.20;99.90;;;-3.29;57.36;94288.63;5033742;28;20363;-64
2021/01/10 06:24:05;;;;;;;15.27;9.67;;;-4.10;99.90;;;-3.34;57.60;94296.88;5050388;28;20183;-65
2021/01/10 06:26:34;;;;;;;15.50;10.37;;;-4.10;99.90;;;-3.31;57.54;94299.13;5030838;28;20233;-64
2021/01/10 06:29:13;;;;;;;14.80;10.13;;;-4.20;99.90;;;-3.29;56.92;94299.75;5048988;28;20197;-64
2021/01/10 06:31:46;;;;;;;15.53;9.20;;;-4.10;99.90;;;-3.36;57.56;94298.06;5050825;28;20287;-65
2021/01/10 06:34:12;;;;;;;12.93;8.93;;;-4.20;99.90;;;-3.41;57.70;94289.97;5053217;28;20268;-64
2021/01/10 06:36:46;;;;;;;16.73;10.37;;;-4.20;99.90;;;-3.40;57.36;94297.56;5032894;28;20195;-63
2021/01/10 06:39:18;;;;;;;15.53;9.23;;;-4.20;99.90;;;-3.37;57.58;94281.69;5050553;28;20186;-63
2021/01/10 06:41:58;;;;;;;14.67;9.90;;;-4.20;99.90;;;-3.41;57.94;94295.16;5050130;28;20551;-65
2021/01/10 06:44:32;;;;;;;15.80;9.57;;;-4.20;99.90;;;-3.43;57.50;94287.56;5051936;28;20206;-66
2021/01/10 06:46:58;;;;;;;15.83;9.57;;;-4.20;99.90;;;-3.45;57.65;94284.31;5066852;28;20191;-63
2021/01/10 06:49:24;;;;;;;15.90;10.20;;;-4.30;99.90;;;-3.50;57.35;94288.41;5026701;28;20226;-64
2021/01/10 06:51:59;;;;;;;15.63;10.03;;;-4.30;99.90;;;-3.45;57.60;94288.69;5049290;28;20633;-66
2021/01/10 06:54:27;;;;;;;14.37;9.30;;;-4.30;99.90;;;-3.46;57.45;94294.88;5050228;28;20181;-64
2021/01/10 06:56:57;;;;;;;15.27;9.63;;;-4.30;99.90;;;-3.50;57.67;94291.00;5033665;28;20201;-65
2021/01/10 06:59:27;;;;;;;16.73;10.37;;;-4.30;99.90;;;-3.50;57.72;94285.81;5063676;28;20186;-64
2021/01/10 07:01:57;;;;;;;16.60;10.43;;;-4.30;99.90;;;-3.50;57.29;94291.81;5046876;28;20649;-65
2021/01/10 07:04:37;;;;;;;15.10;9.67;;;-4.30;99.90;;;-3.48;57.29;94305.38;5050363;28;20671;-64
2021/01/10 07:07:03;;;;;;;16.87;10.70;;;-4.30;99.90;;;-3.55;57.96;94294.06;5053806;28;20208;-66
2021/01/10 07:09:53;;;;;;;15.00;9.37;;;-4.30;99.90;;;-3.52;57.33;94293.72;5055454;28;20211;-68
2021/01/10 07:12:23;;;;;;;14.10;9.03;;;-4.30;99.90;;;-3.59;57.67;94290.22;5054981;28;20186;-65
2021/01/10 07:14:49;;;;;;;14.47;10.07;;;-4.40;99.90;;;-3.59;57.94;94292.78;5019382;28;20243;-65
2021/01/10 07:17:17;;;;;;;13.70;9.93;;;-4.40;99.90;;;-3.62;57.21;94295.72;5041170;28;20197;-67
2021/01/10 07:19:47;;;;;;;17.10;10.67;;;-4.40;99.90;;;-3.79;57.77;94282.03;5057197;28;20186;-66
2021/01/10 07:22:34;;;;;;;17.30;10.80;;;-4.50;99.90;;;-3.72;57.63;94293.34;5053709;28;20326;-65
2021/01/10 07:25:33;;;;;;;13.90;9.53;;;-4.50;99.90;;;-3.72;57.94;94295.13;5053487;28;20676;-66
2021/01/10 07:28:37;;;;;;;13.87;9.40;;;-4.50;99.90;;;-3.70;57.74;94300.97;5048488;28;20226;-68
2021/01/10 07:31:18;;;;;;;15.57;9.97;;;-4.50;99.90;;;-3.74;57.53;94300.47;5067582;28;20287;-67
2021/01/10 07:33:47;;;;;;;15.07;9.60;;;-4.50;99.90;;;-3.76;57.44;94307.59;5052942;28;20190;-66
2021/01/10 07:36:14;;;;;;;15.70;9.50;;;-4.60;99.90;;;-3.57;58.20;94309.00;5032791;28;20187;-65
2021/01/10 07:38:41;;;;;;;15.70;9.87;;;-4.40;99.90;;;-3.50;58.14;94315.13;5068528;28;20297;-65
2021/01/10 07:41:28;;;;;;;15.07;9.43;;;-4.40;99.90;;;-3.56;58.24;94302.03;5038740;28;20213;-65
2021/01/10 07:43:56;;;;;;;13.97;8.97;;;-4.40;99.90;;;-3.48;57.81;94310.56;5052405;28;20243;-65
2021/01/10 07:46:51;;;;;;;19.63;10.60;;;-4.30;99.90;;;-3.29;57.46;94322.31;5043906;28;20512;-65
2021/01/10 07:49:26;;;;;;;14.97;9.23;;;-4.20;99.90;;;-3.25;57.75;94315.78;5052733;28;20179;-67
2021/01/10 07:51:54;;;;;;;14.67;9.40;;;-4.10;99.90;;;-3.22;57.81;94303.28;5052666;28;20514;-66
2021/01/10 07:54:55;;;;;;;14.33;9.50;;;-4.00;99.90;;;-3.11;57.62;94313.28;5053277;28;20282;-66
2021/01/10 07:57:32;;;;;;;14.53;9.07;;;-4.00;99.90;;;-3.22;57.66;94313.66;5051759;28;20187;-66
2021/01/10 08:00:08;;;;;;;14.73;9.43;;;-4.00;99.90;;;-3.27;57.88;94309.97;5054494;28;20180;-64
2021/01/10 08:03:01;;;;;;;14.47;9.40;;;-4.00;99.90;;;-3.01;57.92;94320.00;5047851;28;20666;-65
2021/01/10 08:05:37;;;;;;;12.53;8.23;;;-3.90;99.90;;;-3.01;57.99;94322.59;5031275;28;20268;-66
2021/01/10 08:08:13;;;;;;;12.73;8.93;;;-3.90;99.90;;;-3.13;57.99;94310.06;5042651;28;20213;-65
2021/01/10 08:10:49;;;;;;;15.30;9.23;;;-3.80;99.90;;;-2.99;57.73;94339.63;5063033;28;20193;-67
2021/01/10 08:13:38;;;;;;;14.07;9.03;;;-3.80;99.90;;;-2.79;58.25;94322.63;5029108;28;20190;-67
2021/01/10 08:16:12;;;;;;;14.30;9.20;;;-3.70;99.90;;;-2.40;58.05;94335.44;5045858;28;20203;-70
2021/01/10 08:18:44;;;;;;;13.67;8.93;;;-3.40;99.90;;;-1.79;58.49;94347.38;5036150;28;20198;-66
2021/01/10 08:21:16;;;;;;;12.30;8.43;;;-2.90;99.90;;;-1.07;58.12;94348.28;5062985;28;20200;-70
2021/01/10 08:23:45;;;;;;;12.73;8.53;;;-2.30;99.90;;;-0.22;58.92;94357.97;5038141;28;20483;-69
2021/01/10 08:26:12;;;;;;;11.67;8.50;;;-1.50;99.90;;;0.21;58.83;94319.59;5040148;28;20180;-70
2021/01/10 08:28:56;;;;;;;14.80;8.87;;;-0.80;99.90;;;0.44;58.82;94330.56;5054428;28;20211;-69
2021/01/10 08:31:26;;;;;;;13.73;10.47;;;-0.40;99.90;;;0.60;58.88;94293.78;5053867;28;20238;-70
2021/01/10 08:34:19;;;;;;;15.90;8.60;;;-0.10;99.90;;;-0.39;58.95;94294.94;5039072;28;20267;-69
2021/01/10 08:36:47;;;;;;;14.00;9.03;;;-0.70;99.90;;;-0.25;58.98;94311.47;5060352;28;20231;-68
2021/01/10 08:39:18;;;;;;;11.90;8.97;;;-0.70;99.90;;;-0.02;58.74;94325.88;5047737;28;20663;-66
2021/01/10 08:41:48;;;;;;;12.77;9.27;;;-0.60;99.90;;;0.00;58.71;94326.47;5062408;28;20276;-68
2021/01/10 08:44:18;;;;;;;13.80;8.80;;;-0.50;99.90;;;-0.35;58.50;94311.78;5072362;28;20743;-68
2021/01/10 08:46:50;;;;;;;13.13;8.70;;;-0.70;99.90;;;-0.78;58.29;94320.59;5043908;28;20179;-68
2021/01/10 08:49:25;;;;;;;13.07;8.87;;;-1.10;99.90;;;-0.74;58.56;94312.22;5030785;28;20181;-67
2021/01/10 08:51:54;;;;;;;15.67;9.63;;;-1.20;99.90;;;-0.51;58.46;94327.69;5046322;28;21196;-69
2021/01/10 08:54:23;;;;;;;13.40;8.87;;;-1.20;99.90;;;-0.64;58.04;94317.94;5066954;28;20184;-69
2021/01/10 08:56:57;;;;;;;14.47;9.97;;;-1.20;99.90;;;-0.59;58.58;94314.78;5041180;28;20195;-68
2021/01/10 08:59:35;;;;;;;13.10;9.57;;;-1.20;99.90;;;-0.61;58.38;94335.00;5039857;28;20219;-68
2021/01/10 09:02:11;;;;;;;14.70;9.97;;;-1.20;99.90;;;-0.61;58.58;94340.19;5048912;28;20516;-67
2021/01/10 09:04:47;;;;;;;15.23;10.40;;;-1.30;99.90;;;-0.21;58.78;94359.59;5047382;28;20621;-66
2021/01/10 09:07:23;;;;;;;14.60;9.73;;;-1.10;99.90;;;1.46;58.66;94394.84;5041453;28;20657;-67
2021/01/10 09:10:04;;;;;;;16.13;9.60;;;0.00;99.90;;;3.53;59.07;94366.25;5058110;28;20179;-67
2021/01/10 09:12:43;;;;;;;15.70;10.00;;;2.20;99.90;;;3.06;58.60;94316.91;5030213;28;20184;-66
2021/01/10 09:15:13;;;;;;;10.57;7.93;;;2.60;99.90;;;2.34;58.96;94332.81;5028120;28;20199;-65
2021/01/10 09:17:43;;;;;;;11.07;8.70;;;2.10;99.90;;;2.75;58.88;94377.00;5043011;28;20640;-66
2021/01/10 09:20:16;;;;;;;11.33;8.13;;;2.00;99.90;;;4.06;58.85;94376.41;5031735;28;20199;-65
2021/01/10 09:22:42;;;;;;;11.60;8.83;;;3.00;99.90;;;4.46;59.05;94278.00;5045745;28;20415;-66
2021/01/10 09:25:19;;;;;;;11.30;8.33;;;3.90;99.90;;;3.20;58.37;94307.16;5028785;28;20194;-65
2021/01/10 09:28:17;;;;;;;12.27;8.57;;;3.10;99.90;;;2.20;58.55;94324.19;5041688;28;20192;-66
2021/01/10 09:30:54;;;;;;;12.43;8.93;;;2.30;99.90;;;1.85;59.09;94323.56;5038423;28;20208;-66
2021/01/10 09:33:30;;;;;;;12.40;9.03;;;1.80;99.90;;;1.91;57.90;94382.91;5061108;28;20233;-65
2021/01/10 09:36:01;;;;;;;13.93;9.83;;;1.40;99.90;;;5.92;58.41;94478.47;5041865;28;20191;-66
2021/01/10 09:38:32;;;;;;;10.03;8.20;;;3.90;99.90;;;6.09;58.49;94290.03;5045676;28;20181;-69
2021/01/10 09:41:12;;;;;;;11.47;9.00;;;5.40;99.90;;;4.26;58.54;94314.13;5045360;28;20213;-70
2021/01/10 09:43:44;;;;;;;14.17;9.40;;;4.40;99.90;;;3.56;58.87;94330.94;5039109;28;20192;-68
2021/01/10 09:46:34;;;;;;;10.83;7.87;;;3.60;99.90;;;3.25;58.19;94317.84;5041289;28;20632;-67
2021/01/10 09:49:25;;;;;;;12.00;8.70;;;3.10;99.90;;;4.73;58.63;94407.16;5041913;28;20191;-68
2021/01/10 09:51:57;;;;;;;10.93;8.23;;;3.70;99.90;;;5.89;58.53;94321.09;5060614;28;20644;-70
2021/01/10 09:54:30;;;;;;;10.07;8.00;;;5.10;99.90;;;7.08;58.97;94378.66;5028038;28;20192;-68
2021/01/10 09:57:01;;;;;;;12.77;9.30;;;6.10;99.20;;;6.70;58.24;94336.97;5053763;28;20265;-68
2021/01/10 09:59:52;;;;;;;10.87;8.30;;;6.30;96.70;;;8.50;58.93;94363.66;5025102;28;20230;-68
2021/01/10 10:02:34;;;;;;;13.10;10.20;;;7.60;94.50;;;9.33;58.65;94422.81;5045190;28;20459;-71
2021/01/10 10:05:12;;;;;;;13.87;8.90;;;8.90;91.80;;;11.91;58.69;94410.88;5048073;28;20194;-69
2021/01/10 10:07:49;;;;;;;8.93;8.03;;;11.20;84.70;;;12.73;58.43;94386.06;5046009;28;20183;-67
2021/01/10 10:10:23;;;;;;;10.40;8.67;;;12.50;75.90;;;11.95;58.86;94228.69;5043595;28;20184;-68
2021/01/10 10:13:01;;;;;;;11.03;9.50;;;12.70;69.00;;;10.81;58.42;94252.72;5041992;28;20180;-70
2021/01/10 10:15:54;;;;;;;13.30;10.23;;;11.50;70.20;;;13.00;58.51;94327.25;5044856;28;20179;-69
2021/01/10 10:18:28;;;;;;;10.67;8.47;;;13.00;68.60;;;12.89;57.96;94325.69;5063330;28;21610;-68
2021/01/10 10:20:55;;;;;;;9.77;8.77;;;13.30;65.50;;;14.34;57.99;94271.06;5043163;28;20329;-66
2021/01/10 10:23:23;;;;;;;10.70;8.40;;;14.50;62.30;;;13.60;58.14;94355.63;5061037;28;20195;-67
2021/01/10 10:25:51;;;;;;;10.03;8.30;;;13.80;63.40;;;13.98;57.59;94349.63;5048090;28;20267;-67
2021/01/10 10:28:20;;;;;;;10.80;9.33;;;14.20;61.30;;;15.73;57.54;94377.13;5048398;28;20183;-67
2021/01/10 10:30:49;;;;;;;11.50;8.77;;;15.80;58.80;;;16.72;57.51;94327.91;5050826;28;20238;-67